Time;durP1;ratioP1;P1;durP2;ratioP2;P2;SDS_P1;SDS_P2;PMS_P1;PMS_P2;Temp;Humidity;BMP_temperature;BMP_pressure;BME280_temperature;BME280_humidity;BME280_pressure;Samples;Min_cycle;Max_cycle;Signal;HPM_P1;HPM_P2
2021/01/25 00:02:02;;;;;;;16.67;11.22;;;;;;;6.79;94.31;99136.27;1812498;79;21013;-52
2021/01/25 00:04:30;;;;;;;12.50;9.43;;;;;;;6.77;94.29;99140.36;1812579;79;21612;-52
2021/01/25 00:06:59;;;;;;;16.23;11.90;;;;;;;6.78;94.46;99144.17;1812556;79;21025;-52
2021/01/25 00:09:26;;;;;;;14.50;10.08;;;;;;;6.77;94.37;99146.63;1812453;79;21006;-52
2021/01/25 00:11:55;;;;;;;14.07;9.90;;;;;;;6.75;94.37;99148.83;1812511;78;21006;-52
2021/01/25 00:14:24;;;;;;;17.27;11.05;;;;;;;6.76;94.47;99145.02;1812379;79;21021;-52
2021/01/25 00:16:52;;;;;;;17.05;10.72;;;;;;;6.77;94.49;99145.27;1812445;79;21631;-52
2021/01/25 00:19:20;;;;;;;15.10;11.10;;;;;;;6.78;94.55;99146.91;1812455;79;21358;-52
2021/01/25 00:21:47;;;;;;;13.72;9.68;;;;;;;6.78;94.50;99155.66;1812582;77;21316;-51
2021/01/25 00:24:15;;;;;;;17.70;10.93;;;;;;;6.78;94.54;99149.64;1812412;79;21021;-52
2021/01/25 00:26:43;;;;;;;18.50;12.78;;;;;;;6.78;94.52;99148.27;1812406;78;21010;-52
2021/01/25 00:29:10;;;;;;;17.32;11.63;;;;;;;6.81;94.53;99147.70;1812617;79;21004;-52
2021/01/25 00:31:37;;;;;;;15.40;11.40;;;;;;;6.82;94.62;99145.25;1812572;78;21339;-52
2021/01/25 00:34:05;;;;;;;16.45;10.88;;;;;;;6.83;94.60;99146.89;1812329;78;21033;-51
2021/01/25 00:36:32;;;;;;;15.85;11.90;;;;;;;6.83;94.51;99145.53;1812547;79;21552;-52
2021/01/25 00:38:59;;;;;;;15.68;11.65;;;;;;;6.84;94.47;99144.41;1812605;78;21041;-50
2021/01/25 00:41:27;;;;;;;15.48;11.35;;;;;;;6.85;94.41;99150.15;1812496;79;21054;-52
2021/01/25 00:43:56;;;;;;;16.57;11.22;;;;;;;6.84;94.39;99140.32;1812492;79;21690;-50
2021/01/25 00:46:23;;;;;;;13.13;9.93;;;;;;;6.83;94.33;99137.34;1812363;79;21014;-52
2021/01/25 00:48:50;;;;;;;16.57;12.00;;;;;;;6.80;94.25;99122.90;1812386;79;21006;-52
2021/01/25 00:51:18;;;;;;;13.98;11.73;;;;;;;6.82;94.30;99130.25;1812238;79;21571;-51
2021/01/25 00:53:45;;;;;;;15.15;11.38;;;;;;;6.83;94.33;99119.61;1812632;79;21018;-51
2021/01/25 00:56:13;;;;;;;14.45;10.55;;;;;;;6.85;94.32;99116.03;1812397;79;21886;-51
2021/01/25 00:58:41;;;;;;;13.43;9.98;;;;;;;6.86;94.26;99110.84;1812496;79;20974;-53
2021/01/25 01:01:09;;;;;;;13.62;10.18;;;;;;;6.84;94.11;99113.59;1812289;79;21005;-50
2021/01/25 01:03:37;;;;;;;13.90;10.72;;;;;;;6.83;94.23;99107.32;1812518;79;20997;-50
2021/01/25 01:06:05;;;;;;;13.60;10.70;;;;;;;6.84;94.33;99098.02;1812521;79;21057;-50
2021/01/25 01:08:33;;;;;;;18.80;10.72;;;;;;;6.83;94.08;99105.95;1812600;78;22502;-50
2021/01/25 01:11:02;;;;;;;13.80;11.12;;;;;;;6.79;93.95;99102.16;1812604;78;21544;-50
2021/01/25 01:13:30;;;;;;;14.13;10.93;;;;;;;6.77;94.02;99104.89;1812335;79;21053;-50
2021/01/25 01:15:59;;;;;;;16.85;11.40;;;;;;;6.77;94.07;99102.16;1812532;79;21001;-51
2021/01/25 01:18:26;;;;;;;14.00;11.30;;;;;;;6.75;93.92;99100.52;1812422;79;21584;-51
2021/01/25 01:20:54;;;;;;;15.88;11.22;;;;;;;6.75;93.77;99099.16;1812595;78;21176;-51
2021/01/25 01:23:21;;;;;;;17.98;12.45;;;;;;;6.73;93.85;99100.52;1812378;77;21021;-51
2021/01/25 01:25:49;;;;;;;15.53;10.80;;;;;;;6.76;93.86;99099.99;1812408;79;21033;-51
2021/01/25 01:28:16;;;;;;;13.55;10.93;;;;;;;6.78;93.71;99095.05;1812049;78;21025;-51
2021/01/25 01:30:43;;;;;;;14.85;12.25;;;;;;;6.76;93.44;99095.89;1812469;79;21473;-50
2021/01/25 01:33:11;;;;;;;19.77;13.43;;;;;;;6.72;93.43;99092.09;1812503;79;21191;-51
2021/01/25 01:35:38;;;;;;;15.03;12.30;;;;;;;6.71;93.43;99097.27;1812464;79;20990;-50
2021/01/25 01:38:06;;;;;;;15.25;11.22;;;;;;;6.68;93.51;99097.84;1812304;79;21022;-50
2021/01/25 01:40:33;;;;;;;17.85;13.50;;;;;;;6.64;93.34;99095.40;1812459;79;21061;-51
2021/01/25 01:43:01;;;;;;;17.27;12.95;;;;;;;6.59;93.31;99101.70;1812629;79;20974;-50
2021/01/25 01:45:28;;;;;;;15.93;13.98;;;;;;;6.58;93.56;99098.14;1812519;79;21184;-51
2021/01/25 01:47:56;;;;;;;21.40;16.12;;;;;;;6.60;93.52;99102.51;1812731;79;21556;-51
2021/01/25 01:50:24;;;;;;;21.45;16.52;;;;;;;6.62;93.55;99103.06;1812601;78;20997;-51
2021/01/25 01:52:54;;;;;;;20.80;14.65;;;;;;;6.65;93.63;99098.41;1812535;79;21025;-51
2021/01/25 01:55:22;;;;;;;23.90;16.40;;;;;;;6.68;93.62;99098.64;1812410;79;21009;-51
2021/01/25 01:57:53;;;;;;;25.48;17.45;;;;;;;6.69;93.43;99098.12;1787842;79;21191;-51
2021/01/25 02:00:22;;;;;;;19.50;15.20;;;;;;;6.69;93.37;99099.48;1812583;79;22164;-50
2021/01/25 02:02:49;;;;;;;18.95;13.43;;;;;;;6.67;93.25;99096.20;1812605;79;21025;-51
2021/01/25 02:05:17;;;;;;;20.85;14.83;;;;;;;6.62;92.94;99088.05;1812585;79;20989;-51
2021/01/25 02:07:48;;;;;;;18.55;15.13;;;;;;;6.57;93.04;99092.44;1812625;79;21147;-51
2021/01/25 02:10:17;;;;;;;21.33;15.38;;;;;;;6.58;93.28;99096.77;1812632;79;21281;-50
2021/01/25 02:12:44;;;;;;;16.12;13.03;;;;;;;6.61;93.56;99089.14;1788039;79;21042;-51
2021/01/25 02:15:14;;;;;;;17.12;12.18;;;;;;;6.63;93.65;99096.48;1787994;79;20985;-50
2021/01/25 02:17:41;;;;;;;15.75;11.75;;;;;;;6.64;93.69;99100.86;1812690;79;20978;-50
2021/01/25 02:20:33;;;;;;;16.40;12.25;;;;;;;6.66;93.80;99093.20;1812621;79;21584;-51
2021/01/25 02:23:25;;;;;;;16.97;12.05;;;;;;;6.68;93.83;99103.30;1812662;77;21641;-51
2021/01/25 02:26:35;;;;;;;14.05;9.45;;;;;;;6.70;93.89;99106.55;1812629;79;21548;-52
2021/01/25 02:29:03;;;;;;;14.87;10.58;;;;;;;6.69;93.90;99102.21;1812417;78;21029;-51
2021/01/25 02:31:32;;;;;;;16.73;11.08;;;;;;;6.66;93.84;99107.67;1812172;78;21013;-51
2021/01/25 02:33:59;;;;;;;16.35;12.53;;;;;;;6.65;93.83;99112.05;1812686;79;21317;-51
2021/01/25 02:36:27;;;;;;;17.35;12.25;;;;;;;6.65;93.87;99110.69;1812326;79;21367;-51
2021/01/25 02:38:54;;;;;;;14.83;10.30;;;;;;;6.64;93.91;99106.31;1761975;79;21026;-51
2021/01/25 02:41:28;;;;;;;15.55;11.00;;;;;;;6.63;94.00;99109.59;1812631;79;21005;-51
2021/01/25 02:43:54;;;;;;;14.93;11.10;;;;;;;6.62;93.94;99113.42;1812576;79;21591;-51
2021/01/25 02:46:21;;;;;;;16.52;12.23;;;;;;;6.61;94.03;99114.50;1787470;79;21021;-51
2021/01/25 02:48:49;;;;;;;18.23;12.15;;;;;;;6.58;94.07;99114.50;1812439;79;21247;-51
2021/01/25 02:51:18;;;;;;;17.80;12.15;;;;;;;6.55;94.19;99112.34;1812432;79;20970;-51
2021/01/25 02:53:49;;;;;;;23.87;14.15;;;;;;;6.52;94.23;99117.00;1812407;78;20966;-51
2021/01/25 02:56:16;;;;;;;21.23;13.18;;;;;;;6.52;94.32;99115.63;1812523;79;21044;-51
2021/01/25 02:58:45;;;;;;;16.82;11.68;;;;;;;6.55;94.45;99121.89;1812503;79;21029;-51
2021/01/25 03:01:13;;;;;;;20.10;13.45;;;;;;;6.54;94.42;99127.10;1812572;79;21368;-50
2021/01/25 03:03:41;;;;;;;15.32;11.00;;;;;;;6.49;94.28;99124.94;1812637;79;21037;-51
2021/01/25 03:06:11;;;;;;;18.80;13.38;;;;;;;6.47;94.49;99127.91;1812565;79;20973;-51
2021/01/25 03:08:38;;;;;;;18.50;12.78;;;;;;;6.49;94.55;99119.48;1812634;78;21013;-51
2021/01/25 03:11:06;;;;;;;18.77;10.68;;;;;;;6.49;94.53;99129.83;1812683;79;20943;-51
2021/01/25 03:13:34;;;;;;;17.57;12.75;;;;;;;6.45;94.53;99118.40;1787715;79;21300;-51
2021/01/25 03:16:01;;;;;;;17.10;11.03;;;;;;;6.43;94.64;99120.57;1812676;78;20997;-51
2021/01/25 03:18:30;;;;;;;15.35;11.75;;;;;;;6.43;94.68;99117.84;1788128;79;20938;-51
2021/01/25 03:20:58;;;;;;;17.27;10.95;;;;;;;6.41;94.74;99118.13;1812539;79;21041;-51
2021/01/25 03:23:25;;;;;;;15.95;11.53;;;;;;;6.40;94.78;99120.05;1812646;77;21017;-51
2021/01/25 03:25:53;;;;;;;17.92;12.05;;;;;;;6.39;94.80;99121.69;1812619;79;21200;-51
2021/01/25 03:28:20;;;;;;;17.77;12.45;;;;;;;6.37;94.81;99108.86;1812453;78;21032;-51
2021/01/25 03:30:48;;;;;;;30.92;18.75;;;;;;;6.36;94.83;99109.42;1812563;79;21006;-51
2021/01/25 03:33:15;;;;;;;23.62;15.53;;;;;;;6.38;94.87;99109.14;1812424;79;20942;-51
2021/01/25 03:35:43;;;;;;;21.97;14.25;;;;;;;6.38;94.87;99107.77;1812709;79;21017;-51
2021/01/25 03:38:10;;;;;;;18.60;14.18;;;;;;;6.39;94.89;99103.97;1812603;79;21289;-51
2021/01/25 03:40:38;;;;;;;22.40;14.20;;;;;;;6.40;94.90;99105.57;1812625;79;20974;-51
2021/01/25 03:43:05;;;;;;;18.35;13.25;;;;;;;6.42;94.85;99102.56;1812659;79;21065;-51
2021/01/25 03:45:32;;;;;;;19.65;13.32;;;;;;;6.40;94.70;99098.23;1812435;79;21073;-51
2021/01/25 03:48:00;;;;;;;21.37;14.47;;;;;;;6.36;94.71;99099.88;1812659;79;20989;-51
2021/01/25 03:50:28;;;;;;;22.20;14.35;;;;;;;6.36;94.82;99090.89;1812562;79;21246;-51
2021/01/25 03:53:02;;;;;;;17.70;13.30;;;;;;;6.36;94.78;99092.25;1812424;79;21056;-51
2021/01/25 03:55:29;;;;;;;21.00;14.18;;;;;;;6.40;94.87;99082.39;1812604;79;20997;-51
2021/01/25 03:57:57;;;;;;;21.97;14.63;;;;;;;6.44;94.85;99081.30;1812569;79;21017;-51
2021/01/25 04:00:25;;;;;;;18.00;13.28;;;;;;;6.45;94.80;99085.11;1812516;79;21293;-51
2021/01/25 04:02:52;;;;;;;18.20;13.53;;;;;;;6.48;94.59;99081.81;1812488;79;21258;-51
2021/01/25 04:05:20;;;;;;;20.20;14.65;;;;;;;6.45;94.34;99082.38;1812605;79;20974;-51
2021/01/25 04:07:48;;;;;;;19.67;13.65;;;;;;;6.45;94.32;99072.84;1812456;79;20974;-51
2021/01/25 04:10:15;;;;;;;21.65;14.90;;;;;;;6.48;94.32;99075.56;1812412;78;20998;-51
2021/01/25 04:12:45;;;;;;;20.02;14.15;;;;;;;6.49;94.13;99074.47;1812262;78;21006;-51
2021/01/25 04:15:14;;;;;;;20.90;14.00;;;;;;;6.44;93.77;99085.39;1812266;79;21234;-51
2021/01/25 04:17:41;;;;;;;20.72;15.30;;;;;;;6.39;93.79;99080.78;1812532;79;21567;-51
2021/01/25 04:20:11;;;;;;;18.65;14.00;;;;;;;6.37;93.69;99085.16;1812502;79;20998;-51
2021/01/25 04:22:38;;;;;;;20.45;15.35;;;;;;;6.36;93.71;99077.25;1812574;77;20966;-51
2021/01/25 04:25:07;;;;;;;20.62;15.98;;;;;;;6.39;93.83;99082.14;1812366;79;21049;-51
2021/01/25 04:27:36;;;;;;;22.48;16.00;;;;;;;6.39;93.73;99079.41;1812589;79;21489;-51
2021/01/25 04:30:11;;;;;;;26.57;18.12;;;;;;;6.41;93.63;99079.94;1816360;78;20989;-51
2021/01/25 04:32:39;;;;;;;21.90;16.65;;;;;;;6.42;93.42;99082.95;1817539;79;25438;-51
2021/01/25 04:35:11;;;;;;;25.27;18.02;;;;;;;6.42;93.21;99085.67;1817278;79;21009;-51
2021/01/25 04:37:42;;;;;;;25.60;16.93;;;;;;;6.40;92.90;99076.94;1817473;79;21011;-51
2021/01/25 04:40:13;;;;;;;26.20;16.80;;;;;;;6.37;93.00;99080.23;1817552;79;21185;-50
2021/01/25 04:42:40;;;;;;;22.67;16.50;;;;;;;6.36;92.92;99080.78;1817452;79;21029;-51
2021/01/25 04:45:10;;;;;;;26.50;18.23;;;;;;;6.35;92.84;99085.16;1817440;79;22091;-50
2021/01/25 04:47:41;;;;;;;23.47;16.90;;;;;;;6.32;92.83;99084.36;1817385;79;21021;-51
2021/01/25 04:50:10;;;;;;;24.65;16.60;;;;;;;6.32;92.94;99081.06;1817441;79;20950;-51
2021/01/25 04:52:39;;;;;;;16.30;12.80;;;;;;;6.31;92.84;99078.06;1816691;79;21362;-51
2021/01/25 04:55:08;;;;;;;17.45;13.40;;;;;;;6.30;92.93;99077.81;1817095;79;21041;-51
2021/01/25 04:57:37;;;;;;;16.45;12.40;;;;;;;6.32;93.00;99057.09;1817316;78;21155;-51
2021/01/25 05:00:10;;;;;;;18.40;13.83;;;;;;;6.35;92.97;99063.34;1817390;79;21491;-51
2021/01/25 05:02:39;;;;;;;16.35;12.55;;;;;;;6.34;92.85;99058.97;1817316;78;21394;-51
2021/01/25 05:05:09;;;;;;;13.50;10.93;;;;;;;6.32;92.79;99062.53;1817655;78;21559;-51
2021/01/25 05:07:37;;;;;;;15.90;11.50;;;;;;;6.30;92.55;99067.44;1817317;79;21309;-51
2021/01/25 05:10:06;;;;;;;15.25;13.10;;;;;;;6.28;92.52;99071.00;1817306;79;21009;-51
2021/01/25 05:12:48;;;;;;;17.23;12.33;;;;;;;6.28;92.45;99068.28;1788041;79;20950;-51
2021/01/25 05:15:31;;;;;;;16.35;12.75;;;;;;;6.26;92.30;99071.28;1817350;79;20965;-51
2021/01/25 05:18:11;;;;;;;17.27;12.80;;;;;;;6.23;92.32;99059.02;1817340;79;21362;-51
2021/01/25 05:20:38;;;;;;;17.82;12.35;;;;;;;6.21;92.29;99068.00;1817338;78;21017;-51
2021/01/25 05:23:13;;;;;;;17.82;12.68;;;;;;;6.23;92.33;99064.47;1817370;77;21017;-50
2021/01/25 05:28:25;;;;;;;16.27;12.15;;;;;;;6.29;92.21;99063.91;1846819;76;22426;-50
2021/01/25 05:30:53;;;;;;;15.90;12.90;;;;;;;6.22;92.00;99071.00;1816817;78;21018;-50
2021/01/25 05:33:27;;;;;;;19.00;14.23;;;;;;;6.20;91.86;99075.09;1816769;79;21248;-50
2021/01/25 05:35:55;;;;;;;18.87;12.80;;;;;;;6.18;91.83;99085.48;1816794;78;21031;-50
2021/01/25 05:38:23;;;;;;;14.98;11.68;;;;;;;6.16;91.84;99098.02;1816632;78;20994;-51
2021/01/25 05:40:57;;;;;;;16.05;11.68;;;;;;;6.16;91.75;99090.38;1785514;79;20962;-51
2021/01/25 05:43:33;;;;;;;18.02;13.25;;;;;;;6.15;91.72;99101.84;1816605;79;21096;-51
2021/01/25 05:46:12;;;;;;;15.70;11.53;;;;;;;6.15;91.62;99092.85;1816931;79;21220;-51
2021/01/25 05:48:41;;;;;;;16.02;11.48;;;;;;;6.14;91.45;99102.12;1816252;79;21010;-51
2021/01/25 05:51:18;;;;;;;16.55;11.85;;;;;;;6.12;91.42;99100.23;1816692;79;20974;-51
2021/01/25 05:53:46;;;;;;;;;;;;;;;6.11;91.41;99089.84;1819506;79;21998;-52
2021/01/25 05:56:16;;;;;;;15.28;10.50;;;;;;;6.13;91.40;99093.13;1816619;79;20204;-52
2021/01/25 05:58:44;;;;;;;14.30;10.08;;;;;;;6.13;91.17;99097.22;1816635;79;21243;-51
2021/01/25 06:01:11;;;;;;;14.68;12.20;;;;;;;6.13;91.10;99099.95;1816597;78;21012;-51
2021/01/25 06:03:39;;;;;;;17.50;13.45;;;;;;;6.14;90.87;99108.93;1785467;79;21033;-50
2021/01/25 06:06:16;;;;;;;16.77;12.75;;;;;;;6.14;90.80;99104.28;1816686;79;21001;-51
2021/01/25 06:09:01;;;;;;;15.25;12.73;;;;;;;6.13;90.60;99108.66;1816690;79;21010;-51
2021/01/25 06:11:31;;;;;;;;;;;;;;;6.15;90.65;99105.12;1819347;79;21426;-50
2021/01/25 06:14:22;;;;;;;20.30;12.07;;;;;;;6.14;90.42;99098.83;1816473;79;20169;-51
2021/01/25 06:16:50;;;;;;;18.23;10.85;;;;;;;6.13;90.41;99095.86;1816754;79;20970;-50
2021/01/25 06:19:22;;;;;;;16.62;10.28;;;;;;;6.15;90.46;99084.67;1800649;77;21054;-50
2021/01/25 06:21:50;;;;;;;16.48;11.60;;;;;;;6.17;90.40;99074.30;1788751;79;21045;-51
2021/01/25 06:24:19;;;;;;;14.35;11.60;;;;;;;6.19;90.21;99078.94;1766097;81;21844;-51
2021/01/25 06:26:50;;;;;;;15.00;11.78;;;;;;;6.21;90.19;99070.73;1751093;80;21645;-50
2021/01/25 06:29:17;;;;;;;18.75;12.75;;;;;;;6.21;89.92;99071.29;1788122;79;21420;-50
2021/01/25 06:31:47;;;;;;;18.75;12.78;;;;;;;6.20;89.88;99067.76;1814387;79;21139;-50
2021/01/25 06:34:19;;;;;;;22.22;13.22;;;;;;;6.23;89.78;99071.84;1761429;79;21021;-50
2021/01/25 06:36:51;;;;;;;17.77;12.98;;;;;;;6.24;89.49;99059.81;1814457;79;21364;-50
2021/01/25 06:39:27;;;;;;;17.77;12.73;;;;;;;6.26;89.54;99059.54;1785538;79;21057;-51
2021/01/25 06:42:03;;;;;;;18.07;13.88;;;;;;;6.27;89.40;99056.53;1813594;79;21045;-51
2021/01/25 06:44:34;;;;;;;19.55;13.78;;;;;;;6.31;89.29;99064.98;1813820;79;21764;-52
2021/01/25 06:47:04;;;;;;;20.12;14.45;;;;;;;6.33;89.09;99072.33;1813859;78;21087;-51
2021/01/25 06:49:32;;;;;;;18.37;13.62;;;;;;;6.31;88.92;99083.52;1813910;79;21254;-51
2021/01/25 06:52:00;;;;;;;16.27;12.28;;;;;;;6.31;88.80;99078.63;1813647;79;20998;-51
2021/01/25 06:54:28;;;;;;;16.82;11.90;;;;;;;6.31;88.75;99085.44;1813912;79;21103;-51
2021/01/25 06:56:59;;;;;;;16.93;13.72;;;;;;;6.31;88.46;99088.16;1813786;79;21017;-52
2021/01/25 06:59:30;;;;;;;19.12;12.45;;;;;;;6.31;88.32;99086.80;1813884;79;21018;-51
2021/01/25 07:01:58;;;;;;;17.25;13.60;;;;;;;6.31;88.13;99081.34;1813734;79;21260;-52
2021/01/25 07:04:29;;;;;;;22.65;11.68;;;;;;;6.31;88.00;99084.08;1813622;78;21057;-51
2021/01/25 07:06:58;;;;;;;14.78;11.40;;;;;;;6.30;87.75;99072.36;1813901;78;21004;-51
2021/01/25 07:09:31;;;;;;;12.63;10.70;;;;;;;6.30;87.56;99072.89;1813646;79;20994;-53
2021/01/25 07:12:02;;;;;;;15.78;12.25;;;;;;;6.30;87.42;99072.89;1813959;79;21591;-51
2021/01/25 07:14:31;;;;;;;13.50;11.33;;;;;;;6.31;86.87;99060.89;1813785;79;21266;-51
2021/01/25 07:16:59;;;;;;;17.85;12.70;;;;;;;6.29;86.57;99073.45;1813889;79;21706;-52
2021/01/25 07:19:28;;;;;;;16.73;10.43;;;;;;;6.29;86.54;99076.70;1790022;79;21048;-51
2021/01/25 07:21:55;;;;;;;16.35;11.75;;;;;;;6.28;86.30;99075.09;1786846;80;21988;-51
2021/01/25 07:24:27;;;;;;;16.30;12.30;;;;;;;6.26;86.20;99072.64;1786693;80;20993;-52
2021/01/25 07:26:59;;;;;;;16.73;12.03;;;;;;;6.26;86.23;99079.98;1786588;79;21412;-52
2021/01/25 07:29:27;;;;;;;13.80;11.00;;;;;;;6.26;86.18;99084.08;1786519;79;21044;-51
2021/01/25 07:31:56;;;;;;;16.48;11.55;;;;;;;6.23;86.05;99071.28;1809484;79;20986;-52
2021/01/25 07:34:26;;;;;;;15.83;12.37;;;;;;;6.25;85.91;99072.92;1813810;79;21065;-52
2021/01/25 07:36:53;;;;;;;17.20;11.78;;;;;;;6.22;85.80;99070.20;1813857;78;20951;-52
2021/01/25 07:39:21;;;;;;;13.18;11.05;;;;;;;6.20;85.83;99069.12;1813604;79;21338;-52
2021/01/25 07:41:49;;;;;;;15.38;11.60;;;;;;;6.18;85.31;99054.13;1813848;79;21636;-51
2021/01/25 07:44:17;;;;;;;15.72;11.60;;;;;;;6.13;85.40;99049.52;1813527;78;21180;-51
2021/01/25 07:46:47;;;;;;;17.73;11.57;;;;;;;6.13;85.74;99048.16;1813668;79;21034;-52
2021/01/25 07:49:14;;;;;;;15.95;11.65;;;;;;;6.17;85.77;99051.13;1813873;79;21465;-51
2021/01/25 07:51:43;;;;;;;17.55;12.68;;;;;;;6.18;85.61;99060.38;1813759;78;22368;-52
2021/01/25 07:54:15;;;;;;;17.80;13.32;;;;;;;6.16;85.37;99054.41;1783176;79;21211;-51
2021/01/25 07:56:43;;;;;;;14.87;11.75;;;;;;;6.16;85.53;99061.75;1789931;78;21050;-52
2021/01/25 07:59:17;;;;;;;15.50;11.18;;;;;;;6.14;85.41;99036.12;1783299;79;21807;-51
2021/01/25 08:02:05;;;;;;;18.07;11.88;;;;;;;6.12;85.37;99034.24;1785126;80;21075;-53
2021/01/25 08:04:36;;;;;;;19.42;14.45;;;;;;;6.11;85.45;99026.34;1780546;78;21480;-53
2021/01/25 08:07:04;;;;;;;19.75;15.20;;;;;;;6.15;85.70;99041.05;1772020;78;21054;-53
2021/01/25 08:09:37;;;;;;;24.95;16.02;;;;;;;6.19;85.48;99032.03;1777815;78;21050;-51
2021/01/25 08:12:00;;;;;;;22.17;16.45;;;;;;;6.21;85.27;99033.92;1779399;78;21681;-52
2021/01/25 08:14:40;;;;;;;15.72;12.98;;;;;;;6.20;85.22;99057.38;1782414;78;21001;-52
2021/01/25 08:17:18;;;;;;;25.68;18.35;;;;;;;6.19;85.42;99059.30;1777002;78;22917;-52
2021/01/25 08:20:09;;;;;;;23.27;16.62;;;;;;;6.20;85.39;99042.38;1759672;78;21005;-52
2021/01/25 08:22:48;;;;;;;19.02;14.63;;;;;;;6.15;85.14;99037.77;1781169;78;21042;-51
2021/01/25 08:25:23;;;;;;;26.12;18.73;;;;;;;6.12;85.36;99043.78;1759759;78;21089;-52
2021/01/25 08:28:14;;;;;;;21.10;16.17;;;;;;;6.15;85.41;99040.50;1779815;80;21065;-53
2021/01/25 08:30:46;;;;;;;25.48;17.70;;;;;;;6.18;85.30;99023.58;1777482;79;22330;-52
2021/01/25 08:33:26;;;;;;;21.27;15.53;;;;;;;6.17;84.88;99020.61;1777525;78;21034;-52
2021/01/25 08:35:59;;;;;;;22.87;14.85;;;;;;;6.16;84.70;99018.13;1752634;80;20996;-51
2021/01/25 08:38:41;;;;;;;18.95;15.65;;;;;;;6.15;84.83;99030.16;1775530;78;21002;-52
2021/01/25 08:41:28;;;;;;;19.90;15.80;;;;;;;6.13;84.60;99039.97;1775132;78;21552;-55
2021/01/25 08:44:00;;;;;;;21.95;16.85;;;;;;;6.13;84.70;99044.59;1777225;78;21444;-52
2021/01/25 08:46:31;;;;;;;21.10;15.80;;;;;;;6.14;84.61;99027.95;1778061;78;21192;-54
2021/01/25 08:49:13;;;;;;;26.50;14.73;;;;;;;6.14;84.76;99019.77;1776375;78;20982;-54
2021/01/25 08:51:40;;;;;;;22.37;16.97;;;;;;;6.17;84.73;99023.86;1774569;79;21556;-53
2021/01/25 08:54:11;;;;;;;18.32;14.78;;;;;;;6.16;84.74;99009.95;1779232;78;21031;-52
2021/01/25 08:56:40;;;;;;;20.75;15.50;;;;;;;6.16;84.74;98999.88;1779748;78;22840;-54
2021/01/25 08:59:14;;;;;;;18.85;14.25;;;;;;;6.19;84.87;98998.52;1780410;78;21095;-52
2021/01/25 09:01:44;;;;;;;21.82;16.95;;;;;;;6.25;84.65;99003.40;1780610;79;20950;-53
2021/01/25 09:04:14;;;;;;;20.72;16.20;;;;;;;6.25;84.68;99004.77;1778547;78;20962;-53
2021/01/25 09:06:52;;;;;;;17.90;14.35;;;;;;;6.27;84.57;99005.28;1778210;78;20983;-54
2021/01/25 09:09:20;;;;;;;24.23;17.17;;;;;;;6.26;84.53;98992.73;1778788;80;21188;-53
2021/01/25 09:11:47;;;;;;;21.02;16.40;;;;;;;6.26;84.54;99002.28;1775605;78;21009;-52
2021/01/25 09:14:17;;;;;;;27.00;19.40;;;;;;;6.22;84.68;99007.49;1774329;80;20996;-51
2021/01/25 09:16:45;;;;;;;23.80;17.75;;;;;;;6.22;84.94;99004.77;1778389;78;22340;-53
2021/01/25 09:19:14;;;;;;;24.55;16.90;;;;;;;6.22;85.02;98993.86;1776484;79;22067;-53
2021/01/25 09:21:42;;;;;;;28.35;18.92;;;;;;;6.18;85.17;98984.05;1776318;78;21457;-53
2021/01/25 09:24:09;;;;;;;31.20;19.60;;;;;;;6.16;85.37;98980.80;1776798;78;21566;-52
2021/01/25 09:26:37;;;;;;;29.45;18.87;;;;;;;6.15;85.55;98964.16;1777370;78;20987;-54
2021/01/25 09:29:04;;;;;;;25.82;18.70;;;;;;;6.18;85.70;98956.78;1775308;78;22034;-54
2021/01/25 09:31:32;;;;;;;29.27;18.90;;;;;;;6.20;85.70;98962.79;1778461;78;20986;-55
2021/01/25 09:34:00;;;;;;;28.10;19.15;;;;;;;6.23;85.76;98966.88;1769541;79;22984;-54
2021/01/25 09:36:28;;;;;;;26.42;17.17;;;;;;;6.26;85.79;98969.56;1769549;79;21092;-53
2021/01/25 09:38:57;;;;;;;28.00;19.62;;;;;;;6.29;85.71;98960.81;1768102;80;21015;-53
2021/01/25 09:41:27;;;;;;;31.10;21.37;;;;;;;6.32;85.70;98952.10;1771388;79;20970;-51
2021/01/25 09:43:57;;;;;;;29.27;20.23;;;;;;;6.34;85.66;98938.98;1768242;79;21073;-51
2021/01/25 09:46:25;;;;;;;28.05;18.60;;;;;;;6.36;85.77;98952.61;1764812;79;21192;-51
2021/01/25 09:48:52;;;;;;;29.07;19.37;;;;;;;6.40;85.68;98961.86;1767761;79;20992;-52
2021/01/25 09:51:20;;;;;;;29.45;20.35;;;;;;;6.42;85.59;98954.77;1763784;80;21914;-53
2021/01/25 09:53:48;;;;;;;26.07;19.23;;;;;;;6.42;85.67;98945.22;1767203;80;21523;-53
2021/01/25 09:56:15;;;;;;;24.72;16.65;;;;;;;6.41;85.65;98932.67;1779968;79;20978;-52
2021/01/25 09:58:42;;;;;;;26.23;19.25;;;;;;;6.41;85.70;98942.22;1772908;79;21258;-53
2021/01/25 10:01:10;;;;;;;23.77;18.30;;;;;;;6.41;85.56;98927.22;1773794;79;21018;-55
2021/01/25 10:03:38;;;;;;;24.70;18.42;;;;;;;6.38;85.52;98922.33;1765931;80;20978;-52
2021/01/25 10:06:07;;;;;;;26.90;18.20;;;;;;;6.37;85.70;98928.34;1771213;79;20975;-54
2021/01/25 10:11:13;;;;;;;28.42;18.82;;;;;;;6.51;85.56;98905.32;1829196;77;22796;-53
2021/01/25 10:13:41;;;;;;;23.40;16.97;;;;;;;6.49;85.26;98903.44;1786796;78;21027;-53
2021/01/25 10:16:08;;;;;;;25.37;17.52;;;;;;;6.51;84.96;98894.41;1790140;78;21188;-54
2021/01/25 10:18:36;;;;;;;24.25;17.42;;;;;;;6.52;84.97;98887.86;1793443;78;20995;-53
2021/01/25 10:21:04;;;;;;;28.10;18.32;;;;;;;6.55;84.84;98887.29;1795625;78;21008;-53
2021/01/25 10:23:31;;;;;;;29.95;19.27;;;;;;;6.56;84.75;98878.02;1795152;78;20954;-52
2021/01/25 10:25:59;;;;;;;28.35;17.37;;;;;;;6.58;84.79;98871.72;1795325;78;21682;-53
2021/01/25 10:28:27;;;;;;;22.95;15.35;;;;;;;6.57;84.63;98872.84;1795709;78;21406;-54
2021/01/25 10:30:55;;;;;;;27.70;17.62;;;;;;;6.58;84.66;98868.98;1797233;78;21659;-55
2021/01/25 10:33:23;;;;;;;25.15;17.67;;;;;;;6.57;84.56;98855.10;1793253;78;21909;-53
2021/01/25 10:35:50;;;;;;;22.13;15.00;;;;;;;6.59;84.60;98860.27;1796161;78;20985;-55
2021/01/25 10:38:18;;;;;;;24.30;15.85;;;;;;;6.63;84.69;98840.88;1791719;78;20926;-54
2021/01/25 10:40:45;;;;;;;21.68;15.75;;;;;;;6.68;84.54;98841.38;1794712;78;21658;-54
2021/01/25 10:43:14;;;;;;;26.17;15.48;;;;;;;6.71;84.45;98840.80;1798728;78;21584;-54
2021/01/25 10:45:41;;;;;;;25.17;15.40;;;;;;;6.72;84.46;98834.25;1789597;78;20978;-55
2021/01/25 10:48:09;;;;;;;23.00;15.08;;;;;;;6.75;84.32;98830.94;1797248;78;20989;-54
2021/01/25 10:50:37;;;;;;;27.95;17.30;;;;;;;6.78;84.29;98837.18;1799891;78;20993;-54
2021/01/25 10:53:05;;;;;;;20.70;16.62;;;;;;;6.77;84.22;98834.73;1794424;78;21350;-53
2021/01/25 10:55:32;;;;;;;26.23;14.80;;;;;;;6.76;84.24;98824.39;1796543;78;20973;-55
2021/01/25 10:58:01;;;;;;;23.70;16.77;;;;;;;6.77;84.31;98816.45;1800371;78;20986;-53
2021/01/25 11:00:29;;;;;;;28.75;18.67;;;;;;;6.77;84.36;98816.45;1804114;78;21441;-53
2021/01/25 11:02:56;;;;;;;25.70;16.62;;;;;;;6.79;84.42;98810.16;1794826;78;21544;-52
2021/01/25 11:08:03;;;;;;;34.50;21.12;;;;;;;6.87;84.35;98795.91;1854675;75;22508;-55
2021/01/25 11:10:31;;;;;;;36.17;23.60;;;;;;;6.82;84.35;98793.21;1834257;76;20975;-53
2021/01/25 11:12:58;;;;;;;37.55;25.75;;;;;;;6.82;84.32;98797.30;1824851;76;21183;-51
2021/01/25 11:15:26;;;;;;;37.30;25.00;;;;;;;6.77;84.31;98778.80;1826868;76;21021;-53
2021/01/25 11:17:54;;;;;;;44.58;31.27;;;;;;;6.71;84.55;98776.67;1829544;77;21058;-54
2021/01/25 11:20:22;;;;;;;38.08;26.95;;;;;;;6.67;84.77;98775.63;1826388;76;20981;-52
2021/01/25 11:22:49;;;;;;;38.67;25.37;;;;;;;6.68;84.95;98781.35;1825914;76;20975;-54
2021/01/25 11:25:20;;;;;;;38.55;25.17;;;;;;;6.64;85.03;98772.11;1829005;77;21292;-54
2021/01/25 11:27:51;;;;;;;32.30;23.80;;;;;;;6.60;85.25;98766.96;1826955;76;20987;-55
2021/01/25 11:30:19;;;;;;;38.50;26.05;;;;;;;6.56;85.47;98761.28;1825512;77;20991;-54
2021/01/25 11:32:46;;;;;;;36.08;25.57;;;;;;;6.53;85.69;98754.48;1830789;76;20953;-53
2021/01/25 11:35:15;;;;;;;37.20;23.35;;;;;;;6.50;85.91;98746.88;1827722;76;21003;-55
2021/01/25 11:37:43;;;;;;;40.12;24.18;;;;;;;6.47;86.10;98746.62;1828447;77;21360;-53
2021/01/25 11:40:13;;;;;;;41.10;23.35;;;;;;;6.42;86.40;98749.39;1822512;76;21070;-52
2021/01/25 11:42:40;;;;;;;41.28;25.45;;;;;;;6.38;86.67;98752.70;1833608;76;20963;-53
2021/01/25 11:45:08;;;;;;;38.98;26.35;;;;;;;6.38;86.86;98747.80;1834627;76;22006;-53
2021/01/25 11:47:37;;;;;;;38.02;26.30;;;;;;;6.37;87.08;98748.89;1834140;76;21039;-54